Time;durP1;ratioP1;P1;durP2;ratioP2;P2;SDS_P1;SDS_P2;PMS_P1;PMS_P2;Temp;Humidity;BMP_temperature;BMP_pressure;BME280_temperature;BME280_humidity;BME280_pressure;Samples;Min_cycle;Max_cycle;Signal;HPM_P1;HPM_P2
2022/09/26 00:00:40;;;;;;;1999.90;999.90;;;9.80;99.90;;;;;;5051336;28;20458;-75
2022/09/26 00:03:06;;;;;;;1999.90;999.90;;;9.80;99.90;;;;;;5055749;28;20899;-74
2022/09/26 00:05:35;;;;;;;1999.90;999.90;;;9.80;99.90;;;;;;5060467;28;20463;-75
2022/09/26 00:08:03;;;;;;;1999.90;999.90;;;9.80;99.90;;;;;;5059052;28;20466;-75
2022/09/26 00:10:29;;;;;;;1999.90;999.90;;;9.70;99.90;;;;;;5051242;28;20474;-74
2022/09/26 00:12:56;;;;;;;1999.90;999.90;;;9.70;99.90;;;;;;5053039;28;20517;-73
2022/09/26 00:15:24;;;;;;;1999.90;999.90;;;9.60;99.90;;;;;;5062017;28;21011;-74
2022/09/26 00:17:50;;;;;;;1999.90;999.90;;;9.50;99.90;;;;;;5059452;28;20457;-74
2022/09/26 00:20:17;;;;;;;1999.90;999.90;;;9.50;99.90;;;;;;5053016;28;20462;-74
2022/09/26 00:22:45;;;;;;;1999.90;999.90;;;9.50;99.90;;;;;;5051304;28;20512;-72
2022/09/26 00:25:12;;;;;;;1999.90;999.90;;;9.50;99.90;;;;;;5061126;28;20488;-74
2022/09/26 00:27:38;;;;;;;1999.90;999.90;;;9.50;99.90;;;;;;5060500;28;20507;-74
2022/09/26 00:30:06;;;;;;;1999.90;999.90;;;9.40;99.90;;;;;;5053090;28;20462;-74
2022/09/26 00:32:33;;;;;;;1999.90;999.90;;;9.40;99.90;;;;;;5054483;28;20512;-73
2022/09/26 00:34:59;;;;;;;1999.90;999.90;;;9.30;99.90;;;;;;5057081;28;20458;-75
2022/09/26 00:37:26;;;;;;;1999.90;999.90;;;9.20;99.90;;;;;;5061442;28;20461;-74
2022/09/26 00:39:54;;;;;;;1999.90;999.90;;;9.30;99.90;;;;;;5050763;28;20516;-75
2022/09/26 00:42:23;;;;;;;1999.90;999.90;;;9.20;99.90;;;;;;5053004;28;20477;-74
2022/09/26 00:44:53;;;;;;;1999.90;999.90;;;9.20;99.90;;;;;;5056065;28;20459;-75
2022/09/26 00:47:42;;;;;;;1999.90;999.90;;;9.30;99.90;;;;;;5058684;28;20497;-74
2022/09/26 00:50:18;;;;;;;1999.90;999.90;;;9.30;99.90;;;;;;5049781;28;20970;-73
2022/09/26 00:52:50;;;;;;;1999.90;999.90;;;9.20;99.90;;;;;;5054528;28;20493;-73
2022/09/26 00:55:23;;;;;;;1999.90;999.90;;;9.20;99.90;;;;;;5061142;28;20466;-73
2022/09/26 00:57:55;;;;;;;1999.90;999.90;;;9.20;99.90;;;;;;5058630;28;20558;-73
2022/09/26 01:00:23;;;;;;;1999.90;999.90;;;9.20;99.90;;;;;;5053384;28;20463;-73
2022/09/26 01:02:52;;;;;;;1999.90;999.90;;;9.20;99.90;;;;;;5052903;28;21020;-74
2022/09/26 01:05:20;;;;;;;1999.90;999.90;;;9.20;99.90;;;;;;5060203;28;20467;-73
2022/09/26 01:07:48;;;;;;;1999.90;999.90;;;9.20;99.90;;;;;;5058985;28;20469;-73
2022/09/26 01:10:15;;;;;;;1999.90;999.90;;;9.20;99.90;;;;;;5052161;28;20981;-74
2022/09/26 01:12:43;;;;;;;1999.90;999.90;;;9.20;99.90;;;;;;5054396;28;20860;-72
2022/09/26 01:15:11;;;;;;;1999.90;999.90;;;9.20;99.90;;;;;;5060605;28;20520;-75
2022/09/26 01:17:41;;;;;;;1999.90;999.90;;;9.10;99.90;;;;;;5060792;28;20461;-74
2022/09/26 01:20:22;;;;;;;1999.90;999.90;;;9.10;99.90;;;;;;5057470;28;20462;-74
2022/09/26 01:23:23;;;;;;;1999.90;999.90;;;9.10;99.90;;;;;;5053970;28;21932;-74
2022/09/26 01:26:38;;;;;;;1999.90;999.90;;;9.00;99.90;;;;;;5058181;28;20463;-71
2022/09/26 01:29:33;;;;;;;1999.90;999.90;;;9.00;99.90;;;;;;5057156;28;20472;-74
2022/09/26 01:35:00;;;;;;;1999.90;999.90;;;9.00;99.90;;;;;;5059034;28;20445;-74
2022/09/26 01:37:32;;;;;;;1999.90;999.90;;;9.00;99.90;;;;;;5055904;28;20461;-73
2022/09/26 01:40:08;;;;;;;1999.90;999.90;;;8.90;99.90;;;;;;5050472;28;20523;-74
2022/09/26 01:42:42;;;;;;;1999.90;999.90;;;8.90;99.90;;;;;;5055033;28;20534;-73
2022/09/26 01:45:17;;;;;;;1999.90;999.90;;;8.90;99.90;;;;;;5059996;28;20466;-73
2022/09/26 01:47:50;;;;;;;1999.90;999.90;;;9.00;99.90;;;;;;5055818;28;20518;-74
2022/09/26 01:50:23;;;;;;;1999.90;999.90;;;8.90;99.90;;;;;;5052369;28;20484;-74
2022/09/26 01:52:55;;;;;;;1999.90;999.90;;;8.90;99.90;;;;;;5049807;28;20520;-72
2022/09/26 01:55:25;;;;;;;1999.90;999.90;;;8.90;99.90;;;;;;5062236;28;20461;-72
2022/09/26 01:57:57;;;;;;;1999.90;999.90;;;8.80;99.90;;;;;;5059750;28;20480;-71
2022/09/26 02:00:24;;;;;;;1999.90;999.90;;;8.90;99.90;;;;;;5055040;28;20465;-74
2022/09/26 02:02:55;;;;;;;1999.90;999.90;;;8.90;99.90;;;;;;5053988;28;20478;-74
2022/09/26 02:05:27;;;;;;;1999.90;999.90;;;8.90;99.90;;;;;;5062712;28;20965;-74
2022/09/26 02:07:59;;;;;;;1999.90;999.90;;;8.90;99.90;;;;;;5058734;28;20474;-74
2022/09/26 02:10:30;;;;;;;1999.90;999.90;;;9.00;99.90;;;;;;5050127;28;20466;-73
2022/09/26 02:13:02;;;;;;;1999.90;999.90;;;9.00;99.90;;;;;;5054446;28;20490;-73
2022/09/26 02:15:33;;;;;;;1999.90;999.90;;;9.00;99.90;;;;;;5051110;28;20953;-74
2022/09/26 02:18:10;;;;;;;1999.90;999.90;;;9.00;99.90;;;;;;5059677;28;20557;-74
2022/09/26 02:20:40;;;;;;;1999.90;999.90;;;9.00;99.90;;;;;;5053880;28;20458;-73
2022/09/26 02:23:07;;;;;;;1999.90;999.90;;;9.00;99.90;;;;;;5059405;28;20490;-71
2022/09/26 02:25:34;;;;;;;1999.90;999.90;;;9.00;99.90;;;;;;5067348;28;20519;-70
2022/09/26 02:28:02;;;;;;;1999.90;999.90;;;8.90;99.90;;;;;;5064165;28;20454;-71
2022/09/26 02:30:29;;;;;;;1999.90;999.90;;;8.90;99.90;;;;;;5054148;28;20458;-71
2022/09/26 02:32:56;;;;;;;1999.90;999.90;;;8.90;99.90;;;;;;5058529;28;20707;-75
2022/09/26 02:38:09;;;;;;;1999.90;999.90;;;8.80;99.90;;;;;;5061818;28;20487;-74
2022/09/26 02:40:43;;;;;;;1999.90;999.90;;;8.80;99.90;;;;;;5055913;28;20461;-72
2022/09/26 02:43:36;;;;;;;1999.90;999.90;;;8.90;99.90;;;;;;5060270;28;20473;-72
2022/09/26 02:46:13;;;;;;;1999.90;999.90;;;8.90;99.90;;;;;;5062990;28;20848;-73
2022/09/26 02:48:53;;;;;;;1999.90;999.90;;;8.80;99.90;;;;;;5063811;28;20464;-71
2022/09/26 02:51:33;;;;;;;1999.90;999.90;;;8.90;99.90;;;;;;5053863;28;20457;-71
2022/09/26 02:54:20;;;;;;;1999.90;999.90;;;8.90;99.90;;;;;;5062218;28;20466;-73
2022/09/26 02:57:00;;;;;;;1999.90;999.90;;;8.90;99.90;;;;;;5059317;28;20469;-73
2022/09/26 02:59:33;;;;;;;1999.90;999.90;;;8.90;99.90;;;;;;5054059;28;20917;-71
2022/09/26 03:02:06;;;;;;;1999.90;999.90;;;9.00;99.90;;;;;;5053047;28;20482;-73
2022/09/26 03:04:41;;;;;;;1999.90;999.90;;;9.00;99.90;;;;;;5066584;28;21009;-72
2022/09/26 03:07:13;;;;;;;1999.90;999.90;;;9.00;99.90;;;;;;5064480;28;20481;-73
2022/09/26 03:09:42;;;;;;;1999.90;999.90;;;9.10;99.90;;;;;;5060060;28;20465;-70
2022/09/26 03:12:10;;;;;;;1999.90;999.90;;;9.10;99.90;;;;;;5053291;28;20493;-73
2022/09/26 03:14:40;;;;;;;1999.90;999.90;;;9.20;99.90;;;;;;5064179;28;20479;-73
2022/09/26 03:17:08;;;;;;;1999.90;999.90;;;9.30;99.90;;;;;;5060964;28;20450;-73
2022/09/26 03:19:39;;;;;;;1999.90;999.90;;;9.30;99.90;;;;;;5054974;28;20474;-73
2022/09/26 03:22:06;;;;;;;1999.90;999.90;;;9.30;99.90;;;;;;5054602;28;20540;-71
2022/09/26 03:24:36;;;;;;;1999.90;999.90;;;9.40;99.90;;;;;;5067555;28;20458;-73
2022/09/26 03:27:04;;;;;;;1999.90;999.90;;;9.60;99.90;;;;;;5064132;28;20823;-73
2022/09/26 03:29:31;;;;;;;1999.90;999.90;;;9.80;99.90;;;;;;5067656;28;20813;-71
2022/09/26 03:31:59;;;;;;;1999.90;999.90;;;10.00;99.90;;;;;;5057364;28;20587;-72
2022/09/26 03:34:26;;;;;;;1999.90;999.90;;;10.30;99.90;;;;;;5053208;28;20994;-71
2022/09/26 03:36:53;;;;;;;1999.90;999.90;;;10.40;99.90;;;;;;5061663;28;20529;-74
2022/09/26 03:39:20;;;;;;;1999.90;999.90;;;10.50;99.90;;;;;;5066102;28;20469;-73
2022/09/26 03:41:48;;;;;;;1999.90;999.90;;;10.50;99.90;;;;;;5054508;28;20484;-73
2022/09/26 03:44:16;;;;;;;1999.90;999.90;;;10.50;99.90;;;;;;5051864;28;20454;-74
2022/09/26 03:46:42;;;;;;;1999.90;999.90;;;10.60;99.90;;;;;;5057343;28;20496;-73
2022/09/26 03:49:10;;;;;;;1999.90;999.90;;;10.80;99.90;;;;;;5063799;28;20458;-73
2022/09/26 03:51:37;;;;;;;1999.90;999.90;;;10.80;99.90;;;;;;5063450;28;20934;-73
2022/09/26 03:54:04;;;;;;;1999.90;999.90;;;10.80;99.90;;;;;;5051470;28;20489;-73
2022/09/26 03:56:31;;;;;;;1999.90;999.90;;;10.90;99.90;;;;;;5057341;28;20548;-72
2022/09/26 03:58:59;;;;;;;1999.90;999.90;;;11.00;99.90;;;;;;5062466;28;20461;-73
2022/09/26 04:01:27;;;;;;;1999.90;999.90;;;11.10;99.90;;;;;;5056247;28;20552;-71
2022/09/26 04:03:54;;;;;;;1999.90;999.90;;;11.30;99.90;;;;;;5058437;28;20599;-73
2022/09/26 04:06:21;;;;;;;1999.90;999.90;;;11.20;99.90;;;;;;5056327;28;20466;-73
2022/09/26 04:08:50;;;;;;;1999.90;999.90;;;11.10;99.90;;;;;;5056347;28;20461;-74
2022/09/26 04:11:19;;;;;;;1999.90;999.90;;;11.20;99.90;;;;;;5065859;28;20508;-69
2022/09/26 04:13:47;;;;;;;1999.90;999.90;;;11.30;99.90;;;;;;5061941;28;20482;-73
2022/09/26 04:16:15;;;;;;;1999.90;999.90;;;11.20;99.90;;;;;;5064467;28;20466;-76
2022/09/26 04:18:42;;;;;;;1999.90;999.90;;;11.30;99.90;;;;;;5053096;28;20527;-74
2022/09/26 04:21:11;;;;;;;1999.90;999.90;;;11.30;99.90;;;;;;5058669;28;20470;-74
2022/09/26 04:23:39;;;;;;;1999.90;999.90;;;11.30;99.90;;;;;;5061596;28;20485;-73
2022/09/26 04:26:08;;;;;;;1999.90;999.90;;;11.40;99.90;;;;;;5052427;28;20532;-71
2022/09/26 04:28:35;;;;;;;1999.90;999.90;;;11.40;99.90;;;;;;5060631;28;20512;-73
2022/09/26 04:31:05;;;;;;;1999.90;999.90;;;11.40;99.90;;;;;;5050892;28;20492;-73
2022/09/26 04:33:33;;;;;;;1999.90;999.90;;;11.40;99.90;;;;;;5062471;28;20535;-73
2022/09/26 04:36:00;;;;;;;1999.90;999.90;;;11.50;99.90;;;;;;5063806;28;20549;-74
2022/09/26 04:38:31;;;;;;;1999.90;999.90;;;11.60;99.90;;;;;;5066530;28;20518;-73
2022/09/26 04:40:58;;;;;;;1999.90;999.90;;;11.60;99.90;;;;;;5057982;28;20462;-74
2022/09/26 04:43:24;;;;;;;1999.90;999.90;;;11.50;99.90;;;;;;5049718;28;20478;-74
2022/09/26 04:45:51;;;;;;;1999.90;999.90;;;11.50;99.90;;;;;;5050110;28;20902;-74
2022/09/26 04:48:21;;;;;;;1999.90;999.90;;;11.60;99.90;;;;;;5064479;28;20454;-73
2022/09/26 04:50:49;;;;;;;1999.90;999.90;;;11.60;99.90;;;;;;5062273;28;20460;-71
2022/09/26 04:53:18;;;;;;;1999.90;999.90;;;11.60;99.90;;;;;;5049854;28;20567;-75
2022/09/26 04:55:45;;;;;;;1999.90;999.90;;;11.50;99.90;;;;;;5055811;28;20484;-71
2022/09/26 04:58:12;;;;;;;1999.90;999.90;;;11.50;99.90;;;;;;5064114;28;20464;-74
2022/09/26 05:00:44;;;;;;;1999.90;999.90;;;11.50;99.90;;;;;;5057795;28;20466;-73
2022/09/26 05:03:12;;;;;;;1999.90;999.90;;;11.50;99.90;;;;;;5051039;28;21013;-72
2022/09/26 05:05:40;;;;;;;1999.90;999.90;;;11.40;99.90;;;;;;5051719;28;20466;-70
2022/09/26 05:08:08;;;;;;;1999.90;999.90;;;11.50;99.90;;;;;;5051421;28;20471;-74
2022/09/26 05:10:35;;;;;;;1999.90;999.90;;;11.60;99.90;;;;;;5052223;28;20507;-73
2022/09/26 05:13:02;;;;;;;1999.90;999.90;;;11.70;99.90;;;;;;5068653;22;20553;-68
2022/09/26 05:15:29;;;;;;;1999.90;999.90;;;11.80;99.90;;;;;;5063044;28;20616;-70
2022/09/26 05:17:58;;;;;;;1999.90;999.90;;;11.80;99.90;;;;;;5061020;28;20461;-69
2022/09/26 05:20:28;;;;;;;1999.90;999.90;;;11.80;99.90;;;;;;5063726;28;20462;-69
2022/09/26 05:22:56;;;;;;;1999.90;999.90;;;11.80;99.90;;;;;;5063637;28;20478;-71
2022/09/26 05:28:08;;;;;;;1999.90;999.90;;;11.90;99.90;;;;;;5054430;28;20949;-71
2022/09/26 05:30:35;;;;;;;1999.90;999.90;;;11.90;99.90;;;;;;5049933;28;20463;-70
2022/09/26 05:33:02;;;;;;;1999.90;999.90;;;12.00;99.90;;;;;;5051354;28;20470;-70
2022/09/26 05:35:34;;;;;;;1999.90;999.90;;;12.00;99.90;;;;;;5051157;28;20539;-69
2022/09/26 05:38:01;;;;;;;1999.90;999.90;;;12.00;99.90;;;;;;5051807;28;20454;-69
2022/09/26 05:43:14;;;;;;;1999.90;999.90;;;12.10;99.90;;;;;;5048554;28;20476;-70
2022/09/26 05:45:40;;;;;;;1999.90;999.90;;;12.10;99.90;;;;;;5044917;28;20913;-69
2022/09/26 05:48:07;;;;;;;1999.90;999.90;;;12.10;99.90;;;;;;5049080;28;20462;-68
2022/09/26 05:50:34;;;;;;;1999.90;999.90;;;12.20;99.90;;;;;;5049424;28;20508;-69
2022/09/26 05:53:03;;;;;;;1999.90;999.90;;;12.10;99.90;;;;;;5049721;28;20477;-69
2022/09/26 05:55:31;;;;;;;1999.90;999.90;;;12.10;99.90;;;;;;5046584;28;20482;-69
2022/09/26 05:57:58;;;;;;;1999.90;999.90;;;12.20;99.90;;;;;;5052625;28;20516;-69
2022/09/26 06:00:25;;;;;;;1999.90;999.90;;;12.20;99.90;;;;;;5049801;28;20471;-69
2022/09/26 06:02:55;;;;;;;1999.90;999.90;;;12.20;99.90;;;;;;5053558;28;20531;-69
2022/09/26 06:05:23;;;;;;;1999.90;999.90;;;12.30;99.90;;;;;;5051513;28;20458;-68
2022/09/26 06:07:49;;;;;;;1999.90;999.90;;;12.30;99.90;;;;;;5052031;28;20462;-68
2022/09/26 06:10:16;;;;;;;1999.90;999.90;;;12.40;99.90;;;;;;5052472;28;21036;-68
2022/09/26 06:12:44;;;;;;;1999.90;999.90;;;12.30;99.90;;;;;;5052474;28;20474;-69
2022/09/26 06:15:11;;;;;;;1999.90;999.90;;;12.30;99.90;;;;;;5053204;28;20486;-69
2022/09/26 06:17:38;;;;;;;1999.90;999.90;;;12.30;99.90;;;;;;5051342;28;20527;-68
2022/09/26 06:20:06;;;;;;;1999.90;999.90;;;12.30;99.90;;;;;;5052822;28;20465;-69
2022/09/26 06:22:38;;;;;;;1999.90;999.90;;;12.40;99.90;;;;;;5054595;28;20835;-68
2022/09/26 06:25:06;;;;;;;1999.90;999.90;;;12.40;99.90;;;;;;5043837;28;20492;-69
2022/09/26 06:27:35;;;;;;;1999.90;999.90;;;12.50;99.90;;;;;;5046166;28;20458;-69
2022/09/26 06:30:03;;;;;;;1999.90;999.90;;;12.60;99.90;;;;;;5050445;28;20494;-69
2022/09/26 06:32:29;;;;;;;1999.90;999.90;;;12.70;99.90;;;;;;5049915;28;20508;-67
2022/09/26 06:34:56;;;;;;;1999.90;999.90;;;12.70;99.90;;;;;;5052877;28;20527;-69
2022/09/26 06:37:23;;;;;;;1999.90;999.90;;;12.60;99.90;;;;;;5052192;28;20511;-66
2022/09/26 06:39:49;;;;;;;1999.90;999.90;;;12.70;99.90;;;;;;5051792;28;20469;-68
2022/09/26 06:42:16;;;;;;;1999.90;999.90;;;12.70;99.90;;;;;;5051736;28;20547;-68
2022/09/26 06:44:42;;;;;;;1999.90;999.90;;;12.80;99.90;;;;;;5051557;28;20539;-68
2022/09/26 06:47:12;;;;;;;1999.90;999.90;;;12.80;99.90;;;;;;5052983;28;20469;-70
2022/09/26 06:49:38;;;;;;;1999.90;999.90;;;12.80;99.90;;;;;;5051948;28;20536;-69
2022/09/26 06:52:05;;;;;;;1999.90;999.90;;;12.80;99.90;;;;;;5052453;28;20962;-70
2022/09/26 06:54:31;;;;;;;1999.90;999.90;;;12.70;99.90;;;;;;5050358;28;20489;-70
2022/09/26 06:56:58;;;;;;;1999.90;999.90;;;12.70;99.90;;;;;;5052625;28;20523;-70
2022/09/26 06:59:25;;;;;;;1999.90;999.90;;;12.80;99.90;;;;;;5051824;28;20947;-69
2022/09/26 07:01:51;;;;;;;1999.90;999.90;;;13.00;99.90;;;;;;5052484;28;20496;-68
2022/09/26 07:04:19;;;;;;;1999.90;999.90;;;13.30;99.90;;;;;;5049076;28;20482;-67
2022/09/26 07:06:46;;;;;;;1999.90;999.90;;;13.50;99.90;;;;;;5048470;28;20462;-68
2022/09/26 07:09:13;;;;;;;1999.90;999.90;;;13.50;99.90;;;;;;5052449;28;20527;-69
2022/09/26 07:11:45;;;;;;;1999.90;999.90;;;13.50;99.90;;;;;;5049930;28;20922;-68
2022/09/26 07:14:13;;;;;;;1999.90;999.90;;;13.50;99.90;;;;;;5048180;28;20485;-67
2022/09/26 07:16:40;;;;;;;1999.90;999.90;;;13.40;99.90;;;;;;5053865;28;20458;-68
2022/09/26 07:19:07;;;;;;;1999.90;999.90;;;13.30;99.90;;;;;;5052837;28;20474;-69
2022/09/26 07:21:35;;;;;;;1999.90;999.90;;;13.60;99.90;;;;;;5047653;28;20532;-68
2022/09/26 07:24:02;;;;;;;1999.90;999.90;;;13.60;99.90;;;;;;5050241;28;20482;-69
2022/09/26 07:26:28;;;;;;;1999.90;999.90;;;13.50;99.90;;;;;;5044929;28;20509;-69
2022/09/26 07:28:55;;;;;;;1999.90;999.90;;;13.50;99.90;;;;;;5047492;28;20453;-69
2022/09/26 07:31:23;;;;;;;1999.90;999.90;;;13.70;99.90;;;;;;5051935;28;20461;-67
2022/09/26 07:33:50;;;;;;;1999.90;999.90;;;13.90;99.90;;;;;;5046957;28;20488;-70
2022/09/26 07:36:17;;;;;;;1999.90;999.90;;;14.00;99.90;;;;;;5049252;28;21019;-67
2022/09/26 07:38:47;;;;;;;1999.90;999.90;;;14.10;99.90;;;;;;5049295;28;20565;-69
2022/09/26 07:41:13;;;;;;;1999.90;999.90;;;14.10;99.90;;;;;;5049835;28;20462;-68
2022/09/26 07:43:40;;;;;;;1999.90;999.90;;;14.10;99.90;;;;;;5049992;28;20855;-68
2022/09/26 07:51:37;;;;;;;1999.90;999.90;;;14.30;99.90;;;;;;5051184;28;20561;-67
2022/09/26 07:54:05;;;;;;;1999.90;999.90;;;14.60;99.90;;;;;;5048204;28;20490;-68
2022/09/26 07:56:33;;;;;;;1999.90;999.90;;;14.80;99.90;;;;;;5049072;28;20505;-70
2022/09/26 07:59:02;;;;;;;1999.90;999.90;;;14.80;99.90;;;;;;5046866;28;20462;-68
2022/09/26 08:01:29;;;;;;;1999.90;999.90;;;14.60;99.90;;;;;;5043204;28;20517;-68
2022/09/26 08:03:57;;;;;;;1999.90;999.90;;;14.70;99.90;;;;;;5043341;28;20479;-69
2022/09/26 08:06:24;;;;;;;1999.90;999.90;;;14.70;99.90;;;;;;5049137;28;20541;-69
2022/09/26 08:08:53;;;;;;;1999.90;999.90;;;14.80;99.90;;;;;;5049222;28;20499;-69
2022/09/26 08:11:22;;;;;;;1999.90;999.90;;;15.10;99.90;;;;;;5049468;28;20520;-71
2022/09/26 08:13:49;;;;;;;1999.90;999.90;;;15.20;99.90;;;;;;5047835;28;20579;-71
2022/09/26 08:16:22;;;;;;;1999.90;999.90;;;15.40;99.90;;;;;;5050198;28;20582;-71
2022/09/26 08:18:48;;;;;;;1999.90;999.90;;;15.40;99.90;;;;;;5044100;28;20556;-72
2022/09/26 08:21:15;;;;;;;1999.90;999.90;;;15.30;99.90;;;;;;5045579;28;20474;-72
2022/09/26 08:23:42;;;;;;;1999.90;999.90;;;15.40;99.90;;;;;;5048441;28;20540;-71
2022/09/26 08:26:08;;;;;;;1999.90;999.90;;;15.40;99.90;;;;;;5049757;28;20453;-70
2022/09/26 08:28:37;;;;;;;1999.90;999.90;;;15.30;99.90;;;;;;5043863;28;20463;-71
2022/09/26 08:31:04;;;;;;;1999.90;999.90;;;15.10;99.90;;;;;;5045434;28;21037;-69
2022/09/26 08:33:34;;;;;;;1999.90;999.90;;;15.10;99.90;;;;;;5048154;28;20494;-70
2022/09/26 08:36:05;;;;;;;1999.90;999.90;;;14.80;99.90;;;;;;5047108;28;20494;-68
2022/09/26 08:38:32;;;;;;;1999.90;999.90;;;14.90;99.90;;;;;;5047894;28;20504;-71
2022/09/26 08:41:07;;;;;;;1999.90;999.90;;;14.90;99.90;;;;;;5047462;28;20520;-72
2022/09/26 08:43:48;;;;;;;1999.90;999.90;;;15.20;99.90;;;;;;5052512;28;20465;-70
2022/09/26 08:46:41;;;;;;;1999.90;999.90;;;15.30;99.90;;;;;;5050408;28;20894;-70
2022/09/26 08:49:27;;;;;;;1999.90;999.90;;;15.20;99.90;;;;;;5051757;28;20442;-70
2022/09/26 08:51:57;;;;;;;1999.90;999.90;;;14.90;99.90;;;;;;5051901;28;20453;-69
2022/09/26 08:54:34;;;;;;;1999.90;999.90;;;15.00;99.90;;;;;;5051876;28;20466;-67
2022/09/26 08:57:05;;;;;;;1999.90;999.90;;;15.10;99.90;;;;;;5051361;28;20500;-70
2022/09/26 08:59:37;;;;;;;1999.90;999.90;;;15.30;99.90;;;;;;5052159;28;20450;-70
2022/09/26 09:02:11;;;;;;;1999.90;999.90;;;15.20;99.90;;;;;;5052325;28;20430;-68
2022/09/26 09:04:44;;;;;;;1999.90;999.90;;;15.10;99.90;;;;;;5051824;28;20474;-70
2022/09/26 09:07:19;;;;;;;1999.90;999.90;;;15.40;99.90;;;;;;5052084;28;20497;-70
2022/09/26 09:09:46;;;;;;;1999.90;999.90;;;15.20;99.90;;;;;;5046538;28;20791;-70
2022/09/26 09:12:21;;;;;;;1999.90;999.90;;;14.90;99.90;;;;;;5051871;28;20492;-70
2022/09/26 09:14:59;;;;;;;1999.90;999.90;;;14.70;99.90;;;;;;5051555;28;20531;-70
2022/09/26 09:17:36;;;;;;;1999.90;999.90;;;14.70;99.90;;;;;;5052089;28;20434;-70
2022/09/26 09:20:14;;;;;;;1999.90;999.90;;;14.90;99.90;;;;;;5050998;28;21016;-71
2022/09/26 09:22:58;;;;;;;1999.90;999.90;;;15.00;99.90;;;;;;5051450;28;20480;-69
2022/09/26 09:25:31;;;;;;;1999.90;999.90;;;14.80;99.90;;;;;;5051772;28;20480;-72
2022/09/26 09:28:12;;;;;;;1999.90;999.90;;;15.10;99.90;;;;;;5051818;28;20470;-72
2022/09/26 09:30:45;;;;;;;1999.90;999.90;;;15.20;99.90;;;;;;5050434;28;20946;-72
2022/09/26 09:33:16;;;;;;;1999.90;999.90;;;15.40;99.90;;;;;;5051185;28;20470;-72
2022/09/26 09:35:46;;;;;;;1999.90;999.90;;;15.70;99.90;;;;;;5050831;28;20482;-72
2022/09/26 09:38:16;;;;;;;1999.90;999.90;;;15.70;99.90;;;;;;5051825;28;20499;-71
2022/09/26 09:40:49;;;;;;;1999.90;999.90;;;15.80;99.90;;;;;;5050687;28;20462;-72
2022/09/26 09:43:25;;;;;;;1999.90;999.90;;;15.80;99.90;;;;;;5051365;28;20527;-72
2022/09/26 09:45:58;;;;;;;1999.90;999.90;;;15.90;99.90;;;;;;5051517;28;20430;-72
2022/09/26 09:48:27;;;;;;;1999.90;999.90;;;15.80;99.90;;;;;;5051818;28;20434;-72
2022/09/26 09:51:05;;;;;;;1999.90;999.90;;;15.90;99.90;;;;;;5051869;28;20496;-72
2022/09/26 09:53:59;;;;;;;1999.90;999.90;;;16.20;99.90;;;;;;5050064;28;20485;-72
2022/09/26 09:56:38;;;;;;;1999.90;999.90;;;16.40;99.90;;;;;;5030731;28;20487;-72
2022/09/26 09:59:19;;;;;;;1999.90;999.90;;;16.10;99.90;;;;;;5031372;28;20457;-71
2022/09/26 10:01:50;;;;;;;1999.90;999.90;;;16.00;99.90;;;;;;5031365;28;20834;-71
2022/09/26 10:04:30;;;;;;;1999.90;999.90;;;16.30;99.90;;;;;;5039975;28;20543;-69
2022/09/26 10:06:57;;;;;;;1999.90;999.90;;;16.30;99.90;;;;;;5051356;28;20438;-72
2022/09/26 10:09:27;;;;;;;1999.90;999.90;;;16.00;99.90;;;;;;5051150;28;20499;-72
2022/09/26 10:11:56;;;;;;;1999.90;999.90;;;15.80;99.90;;;;;;5051578;28;20434;-72
2022/09/26 10:14:29;;;;;;;1999.90;999.90;;;15.80;99.90;;;;;;5050937;28;20490;-70
2022/09/26 10:17:20;;;;;;;1999.90;999.90;;;15.90;99.90;;;;;;5050296;28;20971;-72
2022/09/26 10:19:47;;;;;;;1999.90;999.90;;;15.50;99.90;;;;;;5045409;28;20926;-71
2022/09/26 10:22:24;;;;;;;1999.90;999.90;;;15.30;99.90;;;;;;5048792;28;20473;-72
2022/09/26 10:24:53;;;;;;;1999.90;999.90;;;15.50;99.90;;;;;;5050431;28;20489;-72
2022/09/26 10:27:33;;;;;;;1999.90;999.90;;;15.70;99.90;;;;;;5049018;28;20483;-70
2022/09/26 10:30:02;;;;;;;1999.90;999.90;;;15.50;99.90;;;;;;5047443;28;20447;-72
2022/09/26 10:32:44;;;;;;;1999.90;999.90;;;15.50;99.90;;;;;;5051112;28;20453;-70
2022/09/26 10:35:18;;;;;;;1999.90;999.90;;;14.90;99.90;;;;;;5050578;28;20529;-70
2022/09/26 10:37:49;;;;;;;1999.90;999.90;;;15.20;99.90;;;;;;5049986;28;22349;-73
2022/09/26 10:43:27;;;;;;;1999.90;999.90;;;16.00;99.90;;;;;;5053179;28;20457;-73
2022/09/26 10:46:02;;;;;;;1999.90;999.90;;;16.10;99.40;;;;;;5054343;28;20462;-70
2022/09/26 10:48:46;;;;;;;1999.90;999.90;;;16.40;99.80;;;;;;5053301;28;21047;-72
2022/09/26 10:51:20;;;;;;;1999.90;999.90;;;16.50;98.90;;;;;;5053319;28;20461;-73
2022/09/26 10:53:50;;;;;;;1999.90;999.90;;;16.30;98.90;;;;;;5052431;28;20477;-71
2022/09/26 10:56:24;;;;;;;1999.90;999.90;;;16.10;99.10;;;;;;5053320;28;20478;-73
2022/09/26 10:58:56;;;;;;;1999.90;999.90;;;16.00;99.50;;;;;;5053191;28;20902;-72
2022/09/26 11:01:25;;;;;;;1999.90;999.90;;;15.80;99.90;;;;;;5049466;28;20473;-73
2022/09/26 11:03:55;;;;;;;1999.90;999.90;;;15.80;99.70;;;;;;5038891;28;20479;-70
2022/09/26 11:06:25;;;;;;;1999.90;999.90;;;15.90;99.50;;;;;;5051985;28;20873;-70
2022/09/26 11:08:56;;;;;;;1999.90;999.90;;;15.70;99.70;;;;;;5050496;28;20446;-70
2022/09/26 11:11:23;;;;;;;1999.90;999.90;;;15.80;99.40;;;;;;5048177;28;20459;-70
2022/09/26 11:14:02;;;;;;;1999.90;999.90;;;15.70;99.00;;;;;;5043156;28;20870;-70
2022/09/26 11:16:36;;;;;;;1999.90;999.90;;;15.60;99.20;;;;;;5061437;22;20497;-75
2022/09/26 11:19:13;;;;;;;1999.90;999.90;;;15.60;99.80;;;;;;5051124;28;20984;-76
2022/09/26 11:21:46;;;;;;;1999.90;999.90;;;15.40;99.90;;;;;;5052795;28;20460;-76
2022/09/26 11:24:21;;;;;;;1999.90;999.90;;;15.70;99.90;;;;;;5060607;28;20443;-76
2022/09/26 11:26:58;;;;;;;1999.90;999.90;;;15.90;99.90;;;;;;5046323;28;20474;-78
2022/09/26 11:29:38;;;;;;;1999.90;999.90;;;16.20;99.60;;;;;;5048422;28;20523;-74
2022/09/26 11:32:05;;;;;;;1999.90;999.90;;;16.70;99.20;;;;;;5048133;28;20978;-74
2022/09/26 11:34:35;;;;;;;1999.90;999.90;;;16.70;97.80;;;;;;5053571;28;20454;-72
2022/09/26 11:37:14;;;;;;;1999.90;999.90;;;16.90;99.00;;;;;;5050973;28;20543;-73
2022/09/26 11:39:58;;;;;;;1999.90;999.90;;;16.90;97.60;;;;;;5044081;28;20461;-75
2022/09/26 11:42:36;;;;;;;1999.90;999.90;;;17.00;96.50;;;;;;5047294;28;20462;-74
2022/09/26 11:45:15;;;;;;;1999.90;999.90;;;17.10;96.20;;;;;;5059104;28;20492;-75
2022/09/26 11:48:09;;;;;;;1999.90;999.90;;;17.10;95.80;;;;;;5041243;28;20446;-77
2022/09/26 11:50:51;;;;;;;1999.90;999.90;;;17.00;95.60;;;;;;5033604;28;20987;-77
2022/09/26 11:53:51;;;;;;;1999.90;999.90;;;16.90;95.80;;;;;;5033188;28;20497;-74
2022/09/26 11:56:42;;;;;;;1999.90;999.90;;;17.20;95.90;;;;;;5034970;28;20578;-74
2022/09/26 11:59:49;;;;;;;1999.90;999.90;;;17.00;96.30;;;;;;5052821;28;20447;-76
2022/09/26 12:02:56;;;;;;;1999.90;999.90;;;17.30;95.80;;;;;;5037790;28;20450;-77
2022/09/26 12:05:35;;;;;;;1999.90;999.90;;;17.10;95.00;;;;;;4979825;28;20521;-76
2022/09/26 12:08:15;;;;;;;1999.90;999.90;;;17.00;95.40;;;;;;4985071;28;20524;-75
2022/09/26 12:10:53;;;;;;;1999.90;999.90;;;16.90;95.70;;;;;;5029288;28;20466;-76
2022/09/26 12:13:31;;;;;;;1999.90;999.90;;;17.00;95.90;;;;;;5049434;28;20465;-75
2022/09/26 12:16:08;;;;;;;1999.90;999.90;;;16.80;95.90;;;;;;5046222;28;20493;-75
2022/09/26 12:18:44;;;;;;;1999.90;999.90;;;16.40;96.40;;;;;;5046272;28;20473;-75
2022/09/26 12:21:23;;;;;;;1999.90;999.90;;;16.70;96.90;;;;;;5053234;28;20456;-75
2022/09/26 12:23:56;;;;;;;1999.90;999.90;;;16.70;96.40;;;;;;5052752;28;20496;-75
2022/09/26 12:26:33;;;;;;;1999.90;999.90;;;16.70;96.80;;;;;;5050491;28;20986;-75
2022/09/26 12:29:22;;;;;;;1999.90;999.90;;;16.50;96.80;;;;;;5052757;28;20489;-73
2022/09/26 12:32:13;;;;;;;1999.90;999.90;;;16.70;96.40;;;;;;5052666;28;20962;-75
2022/09/26 12:35:09;;;;;;;1999.90;999.90;;;16.80;96.30;;;;;;5051059;28;20454;-75
2022/09/26 12:38:12;;;;;;;1999.90;999.90;;;17.00;96.30;;;;;;5043717;28;20486;-76
2022/09/26 12:40:51;;;;;;;1999.90;999.90;;;17.00;96.50;;;;;;4971655;28;20445;-75
2022/09/26 12:43:33;;;;;;;1999.90;999.90;;;17.20;96.50;;;;;;5043229;28;20456;-76